Tobermory, Canada
Current Conditions -  °F | °C
As of 12:23 AM on Sunday 23 Nov 2014 (Local Time) from CYVV Reporting Station
Haze Haze  
Wind Chill: 37°   Ceiling: 300
Heat Index: 43°   Visibility: 1.5mi
Dew Point: 41°   Wind: 9mph
Humidity: 93%   Direction: 230°SW
Pressure: 29.87"   Gusts: NA
Location:  45.25°N, 81.67°W
Report Text: CYVV 230523Z 23008KT 1 1/2SM BR OVC003 06/05 A2987 RMK FG3ST5 SLP122
Loading
Personal Weather Stations






























Interactive Weather Map New forecast layout! Learn more

10-Day Weather Forecast

Advertisements
Track Severe Weather on mobile